Time;durP1;ratioP1;P1;durP2;ratioP2;P2;SDS_P1;SDS_P2;PMS_P1;PMS_P2;Temp;Humidity;BMP_temperature;BMP_pressure;BME280_temperature;BME280_humidity;BME280_pressure;Samples;Min_cycle;Max_cycle;Signal;HPM_P1;HPM_P2
2022/11/03 00:00:00;;;;;;;14.45;5.05;;;;;;;;;;5002912;28;20030;-77
2022/11/03 00:02:26;;;;;;;18.10;6.22;;;;;;;;;;4995704;28;20023;-77
2022/11/03 00:04:52;;;;;;;20.10;5.68;;;;;;;;;;4994292;28;20572;-77
2022/11/03 00:07:22;;;;;;;12.52;4.78;;;;;;;;;;4995063;28;20035;-78
2022/11/03 00:09:48;;;;;;;12.75;5.50;;;;;;;;;;4994557;28;20077;-77
2022/11/03 00:12:14;;;;;;;11.32;5.20;;;;;;;;;;4995705;28;20105;-78
2022/11/03 00:14:40;;;;;;;11.68;5.68;;;;;;;;;;4995854;28;20062;-77
2022/11/03 00:17:06;;;;;;;10.25;5.38;;;;;;;;;;4994789;28;20026;-73
2022/11/03 00:19:32;;;;;;;17.17;5.30;;;;;;;;;;4995786;28;20031;-77
2022/11/03 00:21:58;;;;;;;13.13;5.57;;;;;;;;;;4995628;28;20026;-76
2022/11/03 00:24:24;;;;;;;13.80;4.90;;;;;;;;;;4995385;28;20105;-77
2022/11/03 00:26:50;;;;;;;14.38;5.15;;;;;;;;;;4994013;28;20504;-77
2022/11/03 00:29:16;;;;;;;9.52;4.93;;;;;;;;;;4994822;28;20042;-77
2022/11/03 00:31:43;;;;;;;8.55;4.45;;;;;;;;;;4995019;28;20061;-77
2022/11/03 00:34:09;;;;;;;11.02;4.50;;;;;;;;;;4995302;28;20511;-77
2022/11/03 00:36:36;;;;;;;12.23;5.35;;;;;;;;;;4993854;28;20054;-77
2022/11/03 00:39:03;;;;;;;12.35;4.60;;;;;;;;;;4994510;28;20500;-77
2022/11/03 00:41:29;;;;;;;10.32;4.45;;;;;;;;;;4995588;28;20510;-77
2022/11/03 00:43:56;;;;;;;16.88;4.13;;;;;;;;;;4996538;28;20026;-77
2022/11/03 00:46:24;;;;;;;10.60;4.32;;;;;;;;;;5013093;28;20036;-76
2022/11/03 00:48:51;;;;;;;14.38;4.03;;;;;;;;;;5014426;28;20022;-78
2022/11/03 00:51:18;;;;;;;8.98;4.28;;;;;;;;;;5014083;28;20046;-78
2022/11/03 00:53:49;;;;;;;12.63;4.22;;;;;;;;;;4996360;28;20027;-77
2022/11/03 00:56:15;;;;;;;;;;;;;;;;;;4996370;28;20172;-78
2022/11/03 00:58:42;;;;;;;8.93;3.78;;;;;;;;;;4994358;28;19941;-77
2022/11/03 01:01:24;;;;;;;9.02;3.90;;;;;;;;;;4994984;28;20045;-77
2022/11/03 01:06:48;;;;;;;13.15;4.55;;;;;;;;;;4994881;28;20118;-77
2022/11/03 01:09:25;;;;;;;10.07;3.80;;;;;;;;;;4994118;28;20023;-77
2022/11/03 01:11:54;;;;;;;9.55;3.45;;;;;;;;;;4994420;28;20022;-77
2022/11/03 01:14:20;;;;;;;7.55;3.70;;;;;;;;;;4994395;28;20034;-78
2022/11/03 01:16:46;;;;;;;13.35;4.45;;;;;;;;;;4994484;28;20117;-77
2022/11/03 01:19:12;;;;;;;13.65;3.83;;;;;;;;;;4992455;28;20085;-76
2022/11/03 01:21:38;;;;;;;8.90;3.85;;;;;;;;;;4994408;28;20022;-77
2022/11/03 01:24:04;;;;;;;11.85;4.15;;;;;;;;;;4994191;28;20042;-76
2022/11/03 01:26:30;;;;;;;18.35;5.15;;;;;;;;;;4994047;28;20018;-77
2022/11/03 01:28:58;;;;;;;10.23;4.05;;;;;;;;;;4993569;28;20030;-79
2022/11/03 01:31:24;;;;;;;10.60;3.97;;;;;;;;;;4994124;28;20510;-76
2022/11/03 01:33:51;;;;;;;9.10;4.20;;;;;;;;;;4994583;28;20040;-77
2022/11/03 01:36:17;;;;;;;13.63;4.88;;;;;;;;;;4993499;28;20395;-77
2022/11/03 01:38:44;;;;;;;12.63;4.70;;;;;;;;;;4993908;28;20410;-77
2022/11/03 01:41:12;;;;;;;7.03;3.75;;;;;;;;;;4992797;28;20037;-77
2022/11/03 01:43:39;;;;;;;12.93;4.30;;;;;;;;;;4993845;28;20027;-75
2022/11/03 01:46:14;;;;;;;9.95;3.40;;;;;;;;;;4993823;28;20056;-76
2022/11/03 01:48:44;;;;;;;11.65;3.33;;;;;;;;;;4993166;28;20065;-76
2022/11/03 01:51:11;;;;;;;7.57;3.90;;;;;;;;;;4992480;28;20019;-76
2022/11/03 01:53:41;;;;;;;10.40;4.30;;;;;;;;;;4993818;28;20134;-76
2022/11/03 01:56:07;;;;;;;13.45;3.88;;;;;;;;;;4992471;28;20445;-76
2022/11/03 01:58:37;;;;;;;7.85;3.60;;;;;;;;;;4991778;28;20068;-76
2022/11/03 02:01:03;;;;;;;11.02;4.38;;;;;;;;;;4993652;28;20062;-76
2022/11/03 02:03:32;;;;;;;9.27;4.18;;;;;;;;;;4992257;28;20034;-76
2022/11/03 02:05:58;;;;;;;7.88;4.07;;;;;;;;;;4992809;28;20110;-76
2022/11/03 02:08:31;;;;;;;11.40;4.63;;;;;;;;;;4991500;28;20492;-77
2022/11/03 02:10:57;;;;;;;13.45;4.05;;;;;;;;;;4993672;28;20030;-77
2022/11/03 02:13:24;;;;;;;12.05;3.88;;;;;;;;;;4993365;28;20030;-77
2022/11/03 02:15:52;;;;;;;9.52;3.88;;;;;;;;;;4993285;28;20037;-78
2022/11/03 02:18:19;;;;;;;17.73;4.70;;;;;;;;;;4992846;28;20022;-77
2022/11/03 02:20:47;;;;;;;12.00;4.70;;;;;;;;;;4993640;28;20038;-77
2022/11/03 02:23:19;;;;;;;10.13;3.88;;;;;;;;;;4991864;28;20382;-77
2022/11/03 02:25:52;;;;;;;8.63;3.35;;;;;;;;;;4993455;28;20105;-76
2022/11/03 02:28:23;;;;;;;11.45;3.97;;;;;;;;;;4992659;28;20432;-78
2022/11/03 02:31:09;;;;;;;18.38;4.30;;;;;;;;;;4994748;28;20022;-78
2022/11/03 02:33:46;;;;;;;12.38;3.97;;;;;;;;;;4996167;28;20034;-76
2022/11/03 02:36:13;;;;;;;16.20;4.95;;;;;;;;;;4995423;28;20031;-77
2022/11/03 02:38:44;;;;;;;10.68;4.03;;;;;;;;;;4994691;28;20150;-76
2022/11/03 02:41:11;;;;;;;12.77;4.18;;;;;;;;;;5003363;28;20030;-77
2022/11/03 02:43:38;;;;;;;8.57;4.18;;;;;;;;;;5005077;28;20030;-76
2022/11/03 02:46:05;;;;;;;10.55;3.92;;;;;;;;;;5004330;28;20031;-77
2022/11/03 02:48:31;;;;;;;12.95;4.05;;;;;;;;;;5004278;28;20033;-77
2022/11/03 02:50:57;;;;;;;10.70;4.32;;;;;;;;;;5004351;28;20030;-76
2022/11/03 02:53:24;;;;;;;10.07;3.90;;;;;;;;;;4991237;28;20615;-76
2022/11/03 02:56:04;;;;;;;15.68;4.90;;;;;;;;;;4992382;28;20377;-76
2022/11/03 02:58:43;;;;;;;17.50;4.45;;;;;;;;;;4992013;28;20034;-77
2022/11/03 03:01:17;;;;;;;12.15;4.93;;;;;;;;;;4992632;28;20029;-77
2022/11/03 03:03:47;;;;;;;13.02;5.07;;;;;;;;;;4992372;28;20049;-77
2022/11/03 03:06:15;;;;;;;11.05;5.15;;;;;;;;;;4991129;28;20531;-77
2022/11/03 03:08:44;;;;;;;10.55;5.30;;;;;;;;;;4991787;28;20030;-77
2022/11/03 03:11:11;;;;;;;11.23;5.00;;;;;;;;;;4992347;28;20540;-77
2022/11/03 03:13:37;;;;;;;15.90;6.25;;;;;;;;;;4992365;28;20035;-77
2022/11/03 03:16:28;;;;;;;11.50;5.85;;;;;;;;;;4992113;28;20027;-77
2022/11/03 03:19:03;;;;;;;18.30;5.63;;;;;;;;;;4992218;28;20027;-77
2022/11/03 03:21:32;;;;;;;11.00;5.60;;;;;;;;;;4992326;28;20030;-77
2022/11/03 03:24:00;;;;;;;15.65;6.05;;;;;;;;;;4990846;28;20050;-78
2022/11/03 03:26:30;;;;;;;14.48;5.38;;;;;;;;;;4990858;28;20045;-77
2022/11/03 03:29:09;;;;;;;15.57;5.72;;;;;;;;;;4991584;28;20033;-77
2022/11/03 03:31:37;;;;;;;12.70;4.78;;;;;;;;;;4992218;28;20484;-77
2022/11/03 03:34:04;;;;;;;12.30;5.53;;;;;;;;;;4992277;28;20031;-77
2022/11/03 03:36:30;;;;;;;10.82;5.40;;;;;;;;;;4992131;28;20031;-77
2022/11/03 03:38:58;;;;;;;13.88;5.75;;;;;;;;;;4991807;28;20033;-77
2022/11/03 03:41:25;;;;;;;11.85;5.18;;;;;;;;;;4991927;28;20489;-77
2022/11/03 03:43:53;;;;;;;16.85;6.25;;;;;;;;;;4992105;28;20089;-77
2022/11/03 03:46:21;;;;;;;15.57;6.15;;;;;;;;;;4991960;28;20018;-76
2022/11/03 03:48:47;;;;;;;17.02;6.10;;;;;;;;;;4991403;28;20519;-77
2022/11/03 03:51:13;;;;;;;9.77;5.15;;;;;;;;;;4990717;28;20019;-77
2022/11/03 03:53:39;;;;;;;9.80;4.88;;;;;;;;;;4990622;28;20030;-77
2022/11/03 03:56:06;;;;;;;17.90;6.18;;;;;;;;;;4991636;28;20466;-77
2022/11/03 03:58:32;;;;;;;14.07;6.13;;;;;;;;;;4991455;28;20088;-77
2022/11/03 04:00:58;;;;;;;16.55;6.35;;;;;;;;;;4992553;28;20436;-77
2022/11/03 04:03:24;;;;;;;11.27;5.85;;;;;;;;;;4991785;28;20117;-77
2022/11/03 04:05:51;;;;;;;16.67;6.53;;;;;;;;;;4992071;28;20022;-77
2022/11/03 04:08:17;;;;;;;12.43;6.35;;;;;;;;;;4991075;28;20023;-77
2022/11/03 04:22:15;;;;;;;14.93;6.93;;;;;;;;;;4992228;28;20023;-77
2022/11/03 04:24:27;;;;;;;18.67;5.95;;;;;;;;;;4992186;28;20041;-75
2022/11/03 04:26:53;;;;;;;10.30;5.72;;;;;;;;;;4992157;28;20035;-77
2022/11/03 04:29:19;;;;;;;14.13;5.80;;;;;;;;;;4992790;28;20473;-78
2022/11/03 04:31:45;;;;;;;15.50;6.72;;;;;;;;;;4995507;28;20080;-78
2022/11/03 04:34:12;;;;;;;18.73;6.60;;;;;;;;;;4994146;28;20391;-78
2022/11/03 04:36:38;;;;;;;18.85;6.43;;;;;;;;;;4995271;28;20023;-76
2022/11/03 04:39:18;;;;;;;11.07;6.20;;;;;;;;;;4994700;28;20029;-76
2022/11/03 04:41:45;;;;;;;20.80;7.20;;;;;;;;;;4995653;28;20019;-76
2022/11/03 04:44:13;;;;;;;19.70;7.47;;;;;;;;;;4995453;28;20061;-77
2022/11/03 04:46:39;;;;;;;16.20;7.00;;;;;;;;;;4995159;28;20022;-77
2022/11/03 04:49:10;;;;;;;17.58;8.10;;;;;;;;;;4994768;28;20018;-77
2022/11/03 04:51:36;;;;;;;15.15;8.35;;;;;;;;;;4995387;28;20023;-77
2022/11/03 04:54:03;;;;;;;26.15;8.88;;;;;;;;;;4994987;28;20035;-77
2022/11/03 04:56:29;;;;;;;19.75;7.97;;;;;;;;;;4994729;28;20038;-76
2022/11/03 04:58:57;;;;;;;23.95;9.15;;;;;;;;;;4994218;28;20034;-76
2022/11/03 05:01:23;;;;;;;17.52;7.70;;;;;;;;;;4995367;28;20030;-77
2022/11/03 05:03:50;;;;;;;13.15;7.78;;;;;;;;;;4995035;28;20026;-76
2022/11/03 05:06:32;;;;;;;12.18;7.07;;;;;;;;;;4993680;28;20381;-78
2022/11/03 05:08:58;;;;;;;;;;;;;;;;;;4993230;28;20030;-77
2022/11/03 05:11:24;;;;;;;16.00;7.47;;;;;;;;;;5009780;28;19953;-76
2022/11/03 05:13:50;;;;;;;13.77;6.93;;;;;;;;;;4994767;28;20030;-76
2022/11/03 05:16:16;;;;;;;14.18;7.65;;;;;;;;;;4993063;28;20028;-76
2022/11/03 05:18:43;;;;;;;21.90;8.40;;;;;;;;;;4994102;28;20034;-77
2022/11/03 05:21:11;;;;;;;18.05;7.85;;;;;;;;;;4994506;28;20072;-76
2022/11/03 05:23:39;;;;;;;12.60;6.82;;;;;;;;;;4994618;28;20090;-76
2022/11/03 05:26:06;;;;;;;16.27;7.45;;;;;;;;;;4993090;28;20065;-77
2022/11/03 05:28:39;;;;;;;25.88;7.93;;;;;;;;;;4993643;28;20037;-76
2022/11/03 05:31:22;;;;;;;15.95;6.63;;;;;;;;;;4994419;28;20510;-76
2022/11/03 05:33:48;;;;;;;12.82;6.53;;;;;;;;;;4992951;28;20030;-77
2022/11/03 05:36:18;;;;;;;17.13;7.35;;;;;;;;;;4994464;28;20061;-77
2022/11/03 05:38:44;;;;;;;15.13;7.15;;;;;;;;;;4994308;28;20027;-78
2022/11/03 05:41:24;;;;;;;18.13;8.13;;;;;;;;;;4994532;28;20595;-77
2022/11/03 05:44:00;;;;;;;17.10;7.15;;;;;;;;;;5012166;28;20037;-76
2022/11/03 05:46:27;;;;;;;15.68;7.43;;;;;;;;;;5011617;28;20026;-76
2022/11/03 05:48:53;;;;;;;18.13;7.25;;;;;;;;;;5011898;28;20078;-76
2022/11/03 05:51:21;;;;;;;24.75;7.75;;;;;;;;;;4994294;28;20058;-76
2022/11/03 05:53:50;;;;;;;21.73;8.45;;;;;;;;;;4994042;28;20125;-76
2022/11/03 05:56:18;;;;;;;23.70;8.20;;;;;;;;;;4994122;28;20527;-77
2022/11/03 05:58:44;;;;;;;18.55;7.68;;;;;;;;;;4992995;28;20034;-75
2022/11/03 06:01:14;;;;;;;18.90;8.52;;;;;;;;;;4993670;28;20512;-78
2022/11/03 06:03:40;;;;;;;18.92;8.73;;;;;;;;;;4992461;28;20032;-76
2022/11/03 06:06:24;;;;;;;23.20;9.43;;;;;;;;;;4993845;28;20336;-76
2022/11/03 06:08:50;;;;;;;21.02;9.93;;;;;;;;;;4992090;28;20022;-76
2022/11/03 06:11:28;;;;;;;15.40;8.95;;;;;;;;;;4993821;28;20085;-77
2022/11/03 06:13:55;;;;;;;22.90;9.80;;;;;;;;;;4993352;28;20075;-76
2022/11/03 06:16:39;;;;;;;16.95;9.30;;;;;;;;;;4992292;28;20054;-77
2022/11/03 06:19:16;;;;;;;22.58;10.23;;;;;;;;;;4993899;28;20037;-77
2022/11/03 06:21:43;;;;;;;21.17;10.90;;;;;;;;;;4993316;28;20110;-77
2022/11/03 06:24:10;;;;;;;25.17;9.73;;;;;;;;;;4993346;28;20045;-77
2022/11/03 06:26:36;;;;;;;17.63;9.65;;;;;;;;;;4993878;28;20338;-76
2022/11/03 06:29:02;;;;;;;20.15;9.70;;;;;;;;;;4991748;28;20022;-77
2022/11/03 06:31:30;;;;;;;19.98;10.57;;;;;;;;;;4993307;28;20155;-77
2022/11/03 06:33:57;;;;;;;24.33;9.65;;;;;;;;;;4992925;28;20038;-78
2022/11/03 06:36:30;;;;;;;20.45;9.55;;;;;;;;;;4993129;28;20118;-79
2022/11/03 06:39:03;;;;;;;15.95;9.45;;;;;;;;;;4992615;28;20030;-77
2022/11/03 06:41:31;;;;;;;17.40;9.20;;;;;;;;;;4992516;28;20034;-78
2022/11/03 06:43:58;;;;;;;22.25;9.40;;;;;;;;;;4991927;28;20030;-74
2022/11/03 06:46:25;;;;;;;22.00;9.43;;;;;;;;;;4993106;28;20049;-75
2022/11/03 06:48:55;;;;;;;17.88;8.77;;;;;;;;;;4992462;28;20120;-77
2022/11/03 06:51:23;;;;;;;18.15;8.80;;;;;;;;;;4993225;28;20026;-76
2022/11/03 06:53:50;;;;;;;14.45;8.35;;;;;;;;;;4993243;28;20122;-78
2022/11/03 06:56:36;;;;;;;16.73;8.52;;;;;;;;;;5035655;22;20565;-78
2022/11/03 07:02:33;;;;;;;20.13;8.13;;;;;;;;;;5028803;28;20542;-76
2022/11/03 07:05:06;;;;;;;15.38;8.10;;;;;;;;;;5067180;28;20052;-77
2022/11/03 07:07:57;;;;;;;20.80;8.93;;;;;;;;;;5066032;28;20028;-77
2022/11/03 07:10:27;;;;;;;21.30;8.32;;;;;;;;;;5050958;28;20044;-77
2022/11/03 07:13:01;;;;;;;19.33;8.88;;;;;;;;;;5049876;28;20029;-75
2022/11/03 07:15:38;;;;;;;17.80;7.50;;;;;;;;;;5050089;28;20028;-76
2022/11/03 07:28:06;;;;;;;11.70;6.07;;;;;;;;;;5027180;28;20106;-77
2022/11/03 07:36:51;;;;;;;14.15;7.18;;;;;;;;;;5046868;28;20348;-76
2022/11/03 07:42:39;;;;;;;17.65;7.63;;;;;;;;;;5051254;28;20092;-75
2022/11/03 07:45:24;;;;;;;22.10;9.30;;;;;;;;;;5051852;28;20044;-74
2022/11/03 07:47:50;;;;;;;23.08;8.38;;;;;;;;;;5051178;28;20021;-72
2022/11/03 07:50:17;;;;;;;16.95;8.48;;;;;;;;;;5051450;28;20098;-74
2022/11/03 07:52:43;;;;;;;14.93;6.75;;;;;;;;;;5051380;28;20025;-74
2022/11/03 07:55:10;;;;;;;14.10;6.45;;;;;;;;;;5051100;28;20108;-75
2022/11/03 08:01:09;;;;;;;17.38;6.60;;;;;;;;;;5045061;28;20021;-76
2022/11/03 08:09:44;;;;;;;20.60;8.55;;;;;;;;;;5061710;22;20417;-77
2022/11/03 08:12:18;;;;;;;19.35;6.95;;;;;;;;;;5055425;28;20032;-77
2022/11/03 08:14:49;;;;;;;17.23;7.80;;;;;;;;;;5054926;28;20104;-77
2022/11/03 08:17:26;;;;;;;16.10;7.57;;;;;;;;;;5054326;28;20044;-77
2022/11/03 08:19:55;;;;;;;14.93;6.30;;;;;;;;;;5054958;28;20044;-75
2022/11/03 08:22:40;;;;;;;14.73;6.35;;;;;;;;;;5053999;28;20615;-76
2022/11/03 08:25:06;;;;;;;12.98;6.15;;;;;;;;;;5053848;28;20029;-76
2022/11/03 08:27:32;;;;;;;18.17;6.93;;;;;;;;;;5054272;28;20021;-77
2022/11/03 08:29:58;;;;;;;13.75;6.40;;;;;;;;;;5054576;28;20104;-77
2022/11/03 08:32:34;;;;;;;21.27;7.35;;;;;;;;;;5054684;28;20043;-75
2022/11/03 08:35:00;;;;;;;15.73;6.15;;;;;;;;;;5053049;28;20033;-76
2022/11/03 08:37:35;;;;;;;17.85;6.57;;;;;;;;;;5052746;28;20031;-77
2022/11/03 08:40:01;;;;;;;12.02;5.85;;;;;;;;;;5054088;28;20092;-76
2022/11/03 08:42:28;;;;;;;17.05;6.90;;;;;;;;;;5053584;28;20040;-75
2022/11/03 08:44:54;;;;;;;12.02;5.40;;;;;;;;;;5053147;28;20033;-77
2022/11/03 08:47:20;;;;;;;15.38;6.55;;;;;;;;;;5053518;28;20045;-76
2022/11/03 08:49:47;;;;;;;12.98;5.25;;;;;;;;;;5054522;28;20203;-78
2022/11/03 08:52:13;;;;;;;11.18;5.28;;;;;;;;;;5053336;28;20029;-78
2022/11/03 08:54:39;;;;;;;14.35;6.15;;;;;;;;;;5051570;28;20025;-76
2022/11/03 08:57:05;;;;;;;15.20;5.90;;;;;;;;;;5032607;28;20545;-76
2022/11/03 08:59:31;;;;;;;15.70;6.20;;;;;;;;;;5034122;28;20407;-76
2022/11/03 09:01:57;;;;;;;13.00;5.10;;;;;;;;;;5034374;28;20406;-78
2022/11/03 09:04:23;;;;;;;11.05;5.10;;;;;;;;;;5034078;28;20029;-78
2022/11/03 09:06:49;;;;;;;11.10;5.38;;;;;;;;;;5034071;28;20056;-78
2022/11/03 09:09:15;;;;;;;12.70;5.18;;;;;;;;;;5033348;28;20079;-77
2022/11/03 09:11:41;;;;;;;9.57;4.95;;;;;;;;;;5034015;28;20021;-76
2022/11/03 09:14:07;;;;;;;9.65;5.03;;;;;;;;;;5040205;28;20032;-77
2022/11/03 09:16:33;;;;;;;15.10;5.15;;;;;;;;;;5052432;28;20028;-78
2022/11/03 09:18:59;;;;;;;11.23;4.78;;;;;;;;;;5052957;28;20025;-76
2022/11/03 09:21:25;;;;;;;14.75;4.68;;;;;;;;;;5053759;28;20036;-76
2022/11/03 09:23:51;;;;;;;8.95;4.47;;;;;;;;;;5053622;28;20029;-75
2022/11/03 09:26:17;;;;;;;11.68;4.55;;;;;;;;;;5053731;28;20028;-77
2022/11/03 09:28:43;;;;;;;11.93;4.88;;;;;;;;;;5053210;28;20383;-75
2022/11/03 09:31:09;;;;;;;9.88;4.00;;;;;;;;;;5053881;28;20035;-77
2022/11/03 09:33:35;;;;;;;9.50;4.90;;;;;;;;;;5054515;28;20390;-77
2022/11/03 09:36:01;;;;;;;12.63;4.38;;;;;;;;;;5054097;28;20029;-77
2022/11/03 09:38:27;;;;;;;12.05;4.63;;;;;;;;;;5053323;28;20025;-76
2022/11/03 09:40:54;;;;;;;12.60;4.45;;;;;;;;;;5053748;28;20096;-77
2022/11/03 09:43:21;;;;;;;12.18;4.22;;;;;;;;;;5053859;28;20588;-74
2022/11/03 09:45:47;;;;;;;10.95;4.82;;;;;;;;;;5052405;28;20009;-76
2022/11/03 09:48:13;;;;;;;8.90;4.00;;;;;;;;;;5051746;28;20021;-77
2022/11/03 09:50:39;;;;;;;9.02;4.07;;;;;;;;;;5052835;28;20186;-78
2022/11/03 09:53:05;;;;;;;7.35;3.60;;;;;;;;;;5060052;28;20025;-77
2022/11/03 09:55:31;;;;;;;8.93;3.42;;;;;;;;;;5064771;28;20044;-77
2022/11/03 09:57:59;;;;;;;10.75;3.47;;;;;;;;;;5062584;28;20036;-77
2022/11/03 10:00:26;;;;;;;14.73;3.67;;;;;;;;;;5062708;28;20091;-76
2022/11/03 10:02:52;;;;;;;12.65;3.95;;;;;;;;;;5064032;28;20074;-77
2022/11/03 10:05:25;;;;;;;10.00;3.65;;;;;;;;;;5054974;28;20025;-76
2022/11/03 10:08:00;;;;;;;11.57;3.22;;;;;;;;;;5052340;28;20151;-77
2022/11/03 10:10:26;;;;;;;22.73;2.92;;;;;;;;;;5051483;28;20438;-76
2022/11/03 10:12:54;;;;;;;8.52;2.65;;;;;;;;;;5051917;28;20053;-77
2022/11/03 10:15:21;;;;;;;7.43;1.23;;;;;;;;;;5051203;28;20024;-77
2022/11/03 10:17:49;;;;;;;13.13;2.65;;;;;;;;;;5051844;28;20033;-76
2022/11/03 10:20:16;;;;;;;5.97;2.03;;;;;;;;;;5052727;28;20075;-75
2022/11/03 10:22:43;;;;;;;9.60;2.08;;;;;;;;;;5050852;28;20029;-75
2022/11/03 10:25:28;;;;;;;5.30;1.70;;;;;;;;;;5050516;28;20032;-75
2022/11/03 10:28:20;;;;;;;6.28;1.70;;;;;;;;;;5047963;28;20075;-75
2022/11/03 10:30:50;;;;;;;6.10;1.88;;;;;;;;;;5044694;28;20044;-75
2022/11/03 10:33:27;;;;;;;8.73;1.40;;;;;;;;;;5050426;28;20051;-75
2022/11/03 10:35:54;;;;;;;4.35;1.58;;;;;;;;;;5052717;28;20410;-77
2022/11/03 10:38:26;;;;;;;3.90;1.40;;;;;;;;;;5051495;28;20025;-79
2022/11/03 10:40:52;;;;;;;2.42;1.30;;;;;;;;;;5049622;28;20036;-76
2022/11/03 10:43:18;;;;;;;4.22;1.50;;;;;;;;;;5056037;28;20032;-77
2022/11/03 10:45:43;;;;;;;5.65;1.00;;;;;;;;;;5063117;28;20021;-78
2022/11/03 10:48:10;;;;;;;5.20;1.27;;;;;;;;;;5062800;28;20041;-76
2022/11/03 10:50:38;;;;;;;3.40;1.20;;;;;;;;;;5059934;28;20029;-76
2022/11/03 10:53:04;;;;;;;4.43;1.40;;;;;;;;;;5050973;28;20032;-77
2022/11/03 10:55:30;;;;;;;9.38;1.60;;;;;;;;;;5052275;28;20029;-76
2022/11/03 10:57:57;;;;;;;6.07;1.90;;;;;;;;;;5051783;28;20036;-77
2022/11/03 11:00:24;;;;;;;5.97;1.60;;;;;;;;;;5051968;28;20021;-76
2022/11/03 11:02:55;;;;;;;5.00;1.42;;;;;;;;;;5052158;28;20037;-76
2022/11/03 11:05:21;;;;;;;;;;;;;;;;;;5052644;28;20071;-76
2022/11/03 11:07:50;;;;;;;9.48;2.13;;;;;;;;;;5051601;28;19999;-78
2022/11/03 11:10:17;;;;;;;7.57;2.10;;;;;;;;;;5052005;28;20033;-77
2022/11/03 11:13:02;;;;;;;9.65;2.53;;;;;;;;;;5052081;28;20415;-76
2022/11/03 11:15:37;;;;;;;6.63;1.95;;;;;;;;;;5035917;28;20108;-75
2022/11/03 11:18:04;;;;;;;8.57;2.58;;;;;;;;;;5031501;28;20021;-77
2022/11/03 11:20:34;;;;;;;10.02;2.25;;;;;;;;;;5030408;28;20031;-77
2022/11/03 11:23:20;;;;;;;9.10;2.33;;;;;;;;;;5031673;28;20087;-77
2022/11/03 11:26:19;;;;;;;16.48;2.20;;;;;;;;;;5029651;28;20105;-76
2022/11/03 11:29:03;;;;;;;7.35;1.80;;;;;;;;;;5007128;28;20087;-77
2022/11/03 11:32:06;;;;;;;7.25;2.28;;;;;;;;;;5032369;28;20392;-77
2022/11/03 11:34:35;;;;;;;5.70;1.60;;;;;;;;;;5032208;28;20556;-77
2022/11/03 11:37:02;;;;;;;6.25;1.95;;;;;;;;;;5031184;28;20061;-79
2022/11/03 11:39:29;;;;;;;8.50;1.92;;;;;;;;;;5029849;28;20609;-76
2022/11/03 11:42:09;;;;;;;6.75;1.95;;;;;;;;;;5052026;28;20475;-77
2022/11/03 11:45:01;;;;;;;8.32;2.10;;;;;;;;;;5051439;28;20483;-77
2022/11/03 11:47:29;;;;;;;6.25;2.30;;;;;;;;;;5051875;28;20123;-77
2022/11/03 11:50:10;;;;;;;6.35;2.28;;;;;;;;;;5051636;28;20061;-77
2022/11/03 11:52:59;;;;;;;5.68;1.95;;;;;;;;;;5051454;28;20073;-77
2022/11/03 11:55:37;;;;;;;5.07;2.10;;;;;;;;;;5051605;28;20021;-77
2022/11/03 11:58:05;;;;;;;5.15;1.98;;;;;;;;;;5050851;28;20390;-77
2022/11/03 12:00:33;;;;;;;6.70;2.03;;;;;;;;;;5051222;28;20104;-76
2022/11/03 12:03:00;;;;;;;9.43;2.20;;;;;;;;;;5051215;28;20487;-77
2022/11/03 12:05:28;;;;;;;8.07;2.33;;;;;;;;;;5051517;28;20090;-74
2022/11/03 12:07:54;;;;;;;6.18;1.85;;;;;;;;;;5051034;28;20048;-77
2022/11/03 12:10:28;;;;;;;6.28;2.45;;;;;;;;;;5051544;28;20082;-76
2022/11/03 12:12:54;;;;;;;9.48;2.67;;;;;;;;;;5051606;28;20493;-77
2022/11/03 12:15:39;;;;;;;6.10;2.35;;;;;;;;;;5052004;28;20045;-77
2022/11/03 12:18:24;;;;;;;8.10;3.13;;;;;;;;;;5050797;28;20396;-76
2022/11/03 12:20:50;;;;;;;8.10;2.63;;;;;;;;;;5050939;28;20036;-77
2022/11/03 12:23:35;;;;;;;8.52;2.53;;;;;;;;;;5051152;28;20029;-75
2022/11/03 12:26:01;;;;;;;7.63;2.78;;;;;;;;;;5051351;28;20500;-76
2022/11/03 12:28:34;;;;;;;4.47;2.70;;;;;;;;;;5050541;28;20036;-75
2022/11/03 12:31:00;;;;;;;7.50;2.83;;;;;;;;;;5051192;28;20100;-77
2022/11/03 12:33:27;;;;;;;6.82;2.78;;;;;;;;;;5050918;28;20028;-77
2022/11/03 12:35:53;;;;;;;5.43;2.53;;;;;;;;;;5050917;28;20024;-77
2022/11/03 12:38:19;;;;;;;5.30;2.65;;;;;;;;;;5050831;28;20036;-75
2022/11/03 12:40:45;;;;;;;12.80;3.08;;;;;;;;;;5051105;28;20025;-76
2022/11/03 12:43:11;;;;;;;8.18;2.70;;;;;;;;;;5046868;28;20060;-76
2022/11/03 12:45:37;;;;;;;10.57;2.88;;;;;;;;;;5047677;28;20107;-77
2022/11/03 12:48:04;;;;;;;9.02;2.50;;;;;;;;;;5043853;28;20094;-77
2022/11/03 12:50:31;;;;;;;9.30;2.45;;;;;;;;;;5042159;28;20044;-76
2022/11/03 12:52:56;;;;;;;8.15;2.45;;;;;;;;;;5033563;28;20112;-76
2022/11/03 12:55:23;;;;;;;5.25;1.88;;;;;;;;;;5034355;28;20065;-75
2022/11/03 12:57:49;;;;;;;6.88;2.50;;;;;;;;;;5034237;28;20032;-77
2022/11/03 13:00:15;;;;;;;9.95;2.58;;;;;;;;;;5034284;28;20033;-76
2022/11/03 13:02:41;;;;;;;5.18;1.95;;;;;;;;;;5034578;28;20025;-76
2022/11/03 13:05:07;;;;;;;10.38;2.92;;;;;;;;;;5034511;28;20075;-77
2022/11/03 13:07:33;;;;;;;4.75;1.95;;;;;;;;;;5033913;28;20470;-76
2022/11/03 13:09:59;;;;;;;12.65;2.97;;;;;;;;;;5034148;28;20052;-76
2022/11/03 13:12:31;;;;;;;8.77;2.47;;;;;;;;;;5034137;28;20468;-76
2022/11/03 13:15:05;;;;;;;6.97;2.55;;;;;;;;;;5033842;28;20029;-76
2022/11/03 13:17:31;;;;;;;8.57;2.60;;;;;;;;;;5033428;28;20087;-77
2022/11/03 13:19:57;;;;;;;9.10;2.78;;;;;;;;;;5033628;28;20026;-76
2022/11/03 13:22:23;;;;;;;9.43;2.42;;;;;;;;;;5034065;28;20032;-76
2022/11/03 13:24:48;;;;;;;11.10;4.07;;;;;;;;;;5034044;28;20364;-76
2022/11/03 13:27:14;;;;;;;9.82;3.78;;;;;;;;;;5033115;28;20105;-76
2022/11/03 13:29:40;;;;;;;9.18;3.60;;;;;;;;;;5033163;28;20018;-76
2022/11/03 13:32:07;;;;;;;16.00;4.70;;;;;;;;;;5033374;28;20056;-75
2022/11/03 13:34:33;;;;;;;17.42;5.40;;;;;;;;;;5033702;28;20421;-78
2022/11/03 13:36:59;;;;;;;11.50;4.90;;;;;;;;;;5033000;28;20028;-76
2022/11/03 13:39:25;;;;;;;17.13;4.70;;;;;;;;;;5033907;28;20029;-75
2022/11/03 13:41:51;;;;;;;22.85;5.30;;;;;;;;;;5052474;28;20074;-75
2022/11/03 13:44:17;;;;;;;8.82;4.30;;;;;;;;;;5051194;28;20037;-78
2022/11/03 13:46:43;;;;;;;11.40;4.60;;;;;;;;;;5050133;28;20040;-76
2022/11/03 13:49:09;;;;;;;13.18;4.75;;;;;;;;;;5050571;28;20031;-76
2022/11/03 13:51:35;;;;;;;10.35;4.55;;;;;;;;;;5051808;28;20025;-77
2022/11/03 13:54:03;;;;;;;11.15;4.15;;;;;;;;;;5051718;28;20021;-77
2022/11/03 13:56:29;;;;;;;9.20;3.67;;;;;;;;;;5051011;28;20036;-77
2022/11/03 13:58:55;;;;;;;9.57;3.65;;;;;;;;;;5052023;28;20028;-75
2022/11/03 14:01:21;;;;;;;12.30;4.07;;;;;;;;;;5051396;28;20024;-76
2022/11/03 14:03:47;;;;;;;10.00;4.03;;;;;;;;;;5052946;28;20123;-77
2022/11/03 14:06:13;;;;;;;11.13;4.18;;;;;;;;;;5052962;28;20033;-76
2022/11/03 14:08:48;;;;;;;8.88;3.30;;;;;;;;;;5052209;28;20053;-76
2022/11/03 14:14:00;;;;;;;9.48;3.72;;;;;;;;;;5021341;28;20391;-76
2022/11/03 14:16:26;;;;;;;10.63;4.03;;;;;;;;;;5052378;28;20025;-75
2022/11/03 14:18:52;;;;;;;9.52;4.30;;;;;;;;;;5052048;28;20082;-77
2022/11/03 14:21:18;;;;;;;6.97;3.70;;;;;;;;;;5050569;28;20028;-76
2022/11/03 14:23:44;;;;;;;10.57;4.45;;;;;;;;;;5050876;28;20373;-77
2022/11/03 14:26:10;;;;;;;9.13;4.45;;;;;;;;;;5051129;28;20036;-76
2022/11/03 14:28:36;;;;;;;15.82;5.82;;;;;;;;;;5052271;28;20017;-77
2022/11/03 14:31:04;;;;;;;15.02;4.70;;;;;;;;;;5052471;28;20082;-77
2022/11/03 14:33:30;;;;;;;11.30;4.18;;;;;;;;;;5053084;28;20025;-76
2022/11/03 14:35:56;;;;;;;10.63;4.82;;;;;;;;;;5051520;28;20052;-76
2022/11/03 14:38:22;;;;;;;9.40;4.65;;;;;;;;;;5052056;28;20130;-76
2022/11/03 14:43:32;;;;;;;12.27;5.47;;;;;;;;;;5053317;28;20040;-77
2022/11/03 14:45:58;;;;;;;14.95;5.07;;;;;;;;;;5037168;28;20434;-76
2022/11/03 14:48:24;;;;;;;10.07;5.20;;;;;;;;;;5031366;28;20037;-76
2022/11/03 14:50:52;;;;;;;11.77;5.20;;;;;;;;;;5032016;28;20029;-79
2022/11/03 14:53:18;;;;;;;11.15;5.22;;;;;;;;;;5032202;28;20048;-77
2022/11/03 14:55:46;;;;;;;9.35;4.55;;;;;;;;;;5032726;28;20025;-77
2022/11/03 14:58:12;;;;;;;16.27;5.32;;;;;;;;;;5032448;28;20026;-77
2022/11/03 15:00:38;;;;;;;9.82;5.22;;;;;;;;;;5031589;28;20104;-76
2022/11/03 15:03:04;;;;;;;13.15;5.40;;;;;;;;;;5030453;28;20041;-77
2022/11/03 15:05:42;;;;;;;10.65;5.50;;;;;;;;;;5031714;28;20068;-76
2022/11/03 15:08:08;;;;;;;9.95;5.40;;;;;;;;;;5031430;28;20033;-76
2022/11/03 15:10:34;;;;;;;11.35;5.00;;;;;;;;;;5031555;28;20439;-75
2022/11/03 15:13:00;;;;;;;12.30;6.20;;;;;;;;;;5031698;28;20125;-77
2022/11/03 15:15:26;;;;;;;13.82;6.05;;;;;;;;;;5031879;28;20450;-77
2022/11/03 15:17:52;;;;;;;16.48;6.30;;;;;;;;;;5030789;28;20022;-77
2022/11/03 15:20:18;;;;;;;10.52;6.00;;;;;;;;;;5029553;28;20032;-77
2022/11/03 15:22:44;;;;;;;12.98;7.20;;;;;;;;;;5030134;28;20025;-76
2022/11/03 15:25:10;;;;;;;16.13;6.57;;;;;;;;;;5030357;28;20024;-77
2022/11/03 15:27:37;;;;;;;11.30;6.75;;;;;;;;;;5030708;28;20112;-77
2022/11/03 15:30:04;;;;;;;16.63;6.68;;;;;;;;;;5032557;28;20029;-76
2022/11/03 15:32:30;;;;;;;14.45;6.32;;;;;;;;;;5032875;28;20022;-74
2022/11/03 15:34:56;;;;;;;13.90;6.88;;;;;;;;;;5032568;28;20173;-77
2022/11/03 15:37:22;;;;;;;11.23;6.47;;;;;;;;;;5031588;28;20030;-77